createdAt,value
2023-04-29T00:01:10.807Z,101558.08
2023-04-29T00:03:39.014Z,101554.64
2023-04-29T00:06:07.537Z,101551.70
2023-04-29T00:08:36.352Z,101551.70
2023-04-29T00:11:04.670Z,101551.90
2023-04-29T00:13:32.690Z,101550.27
2023-04-29T00:16:00.784Z,101554.52
2023-04-29T00:18:28.732Z,101550.73
2023-04-29T00:20:56.751Z,101549.63
2023-04-29T00:23:24.768Z,101548.59
2023-04-29T00:25:53.685Z,101548.41
2023-04-29T00:28:21.917Z,101543.66
2023-04-29T00:30:50.667Z,101548.17
2023-04-29T00:33:18.667Z,101550.09
2023-04-29T00:35:47.293Z,101547.55
2023-04-29T00:38:15.293Z,101545.34
2023-04-29T00:40:44.115Z,101539.32
2023-04-29T00:43:12.140Z,101540.29
2023-04-29T00:45:40.618Z,101540.70
2023-04-29T00:48:09.312Z,101543.56
2023-04-29T00:50:37.304Z,101542.39
2023-04-29T00:53:05.317Z,101543.55
2023-04-29T00:55:33.745Z,101543.45
2023-04-29T00:58:03.048Z,101545.48
2023-04-29T01:00:31.281Z,101546.41
2023-04-29T01:02:59.950Z,101549.50
2023-04-29T01:05:28.121Z,101547.47
2023-04-29T01:08:50.040Z,101547.67
2023-04-29T01:11:21.407Z,101544.21
2023-04-29T01:13:49.694Z,101543.45
2023-04-29T01:16:24.210Z,101544.92
2023-04-29T01:18:58.167Z,101542.20
2023-04-29T01:21:32.257Z,101540.63
2023-04-29T01:24:00.271Z,101540.61
2023-04-29T01:26:31.759Z,101541.73
2023-04-29T01:29:11.024Z,101541.81
2023-04-29T01:31:46.988Z,101543.87
2023-04-29T01:34:21.508Z,101539.63
2023-04-29T01:37:21.436Z,101538.13
2023-04-29T01:40:09.627Z,101533.32
2023-04-29T01:42:48.589Z,101533.19
2023-04-29T01:45:19.125Z,101536.55
2023-04-29T01:47:47.193Z,101541.80
2023-04-29T01:50:16.066Z,101539.64
2023-04-29T01:52:44.379Z,101537.77
2023-04-29T01:55:12.600Z,101541.94
2023-04-29T01:57:52.161Z,101539.30
2023-04-29T02:00:38.987Z,101538.53
2023-04-29T02:03:07.177Z,101542.04
2023-04-29T02:05:40.815Z,101540.17
2023-04-29T02:08:08.931Z,101542.11
2023-04-29T02:10:40.558Z,101541.52
2023-04-29T02:13:24.540Z,101534.56
2023-04-29T02:15:52.722Z,101534.36
2023-04-29T02:18:20.975Z,101542.00
2023-04-29T02:20:51.927Z,101541.79
2023-04-29T02:23:19.925Z,101544.08
2023-04-29T02:25:48.146Z,101544.77
2023-04-29T02:28:16.469Z,101540.38
2023-04-29T02:30:44.986Z,101546.54
2023-04-29T02:33:12.980Z,101545.90
2023-04-29T02:35:41.024Z,101548.83
2023-04-29T02:38:09.049Z,101549.92
2023-04-29T02:40:44.895Z,101551.48
2023-04-29T02:43:13.016Z,101550.69
2023-04-29T02:45:41.063Z,101552.66
2023-04-29T02:48:09.809Z,101550.15
2023-04-29T02:50:38.206Z,101545.86
2023-04-29T02:53:06.303Z,101547.48
2023-04-29T02:55:34.240Z,101552.80
2023-04-29T02:58:07.263Z,101548.71
2023-04-29T03:00:35.471Z,101546.47
2023-04-29T03:03:03.850Z,101549.13
2023-04-29T03:05:32.313Z,101553.47
2023-04-29T03:08:00.354Z,101554.60
2023-04-29T03:10:29.256Z,101557.54
2023-04-29T03:12:57.389Z,101562.61
2023-04-29T03:15:25.602Z,101560.82
2023-04-29T03:17:53.742Z,101563.52
2023-04-29T03:20:22.037Z,101563.38
2023-04-29T03:22:50.054Z,101564.55
2023-04-29T03:25:18.775Z,101565.04
2023-04-29T03:27:47.395Z,101565.73
2023-04-29T03:30:15.533Z,101569.35
2023-04-29T03:32:48.585Z,101575.43
2023-04-29T03:35:16.776Z,101574.61
2023-04-29T03:38:13.907Z,101573.84
2023-04-29T03:40:43.016Z,101575.83
2023-04-29T03:43:11.352Z,101574.84
2023-04-29T03:45:39.467Z,101573.05
2023-04-29T03:48:08.353Z,101573.48
2023-04-29T03:50:37.098Z,101574.84
2023-04-29T03:53:05.352Z,101572.07
2023-04-29T03:55:33.646Z,101572.66
2023-04-29T03:58:01.956Z,101568.89
2023-04-29T04:00:31.485Z,101572.94
2023-04-29T04:03:00.815Z,101574.13
2023-04-29T04:05:30.233Z,101575.33
2023-04-29T04:08:02.666Z,101578.70
2023-04-29T04:11:02.832Z,101577.16
2023-04-29T04:13:37.345Z,101573.45
2023-04-29T04:16:05.778Z,101570.45
2023-04-29T04:18:33.886Z,101569.87
2023-04-29T04:21:12.042Z,101575.75
2023-04-29T04:23:41.867Z,101585.31
2023-04-29T04:26:11.484Z,101578.79
2023-04-29T04:29:17.843Z,101581.45
2023-04-29T04:31:50.791Z,101576.13
2023-04-29T04:34:19.505Z,101574.58
2023-04-29T04:36:49.231Z,101576.57
2023-04-29T04:39:17.249Z,101579.77
2023-04-29T04:41:45.573Z,101577.31
2023-04-29T04:44:14.547Z,101582.43
2023-04-29T04:46:53.163Z,101579.55
2023-04-29T04:49:50.428Z,101577.02
2023-04-29T04:52:22.014Z,101577.08
2023-04-29T04:54:57.156Z,101573.19
2023-04-29T04:57:26.473Z,101571.17
2023-04-29T04:59:55.999Z,101570.37
2023-04-29T05:02:24.225Z,101574.83
2023-04-29T05:04:53.444Z,101575.13
2023-04-29T05:07:21.867Z,101576.00
2023-04-29T05:10:10.726Z,101572.76
2023-04-29T05:12:47.100Z,101574.57
2023-04-29T05:15:16.874Z,101576.45
2023-04-29T05:17:45.387Z,101579.41
2023-04-29T05:20:13.676Z,101572.89
2023-04-29T05:22:42.003Z,101573.64
2023-04-29T05:25:10.622Z,101571.58
2023-04-29T05:27:39.440Z,101573.69
2023-04-29T05:30:10.968Z,101571.04
2023-04-29T05:32:39.060Z,101569.27
2023-04-29T05:35:09.021Z,101572.67
2023-04-29T05:37:37.437Z,101573.68
2023-04-29T05:40:14.283Z,101572.81
2023-04-29T05:42:42.835Z,101568.63
2023-04-29T05:45:12.586Z,101565.56
2023-04-29T05:47:40.708Z,101560.66
2023-04-29T05:50:09.074Z,101565.81
2023-04-29T05:52:37.609Z,101565.02
2023-04-29T05:55:06.123Z,101564.64
2023-04-29T05:57:34.544Z,101565.88
2023-04-29T06:00:04.070Z,101564.23
2023-04-29T06:02:54.838Z,101560.95
2023-04-29T06:05:27.466Z,101560.51
2023-04-29T06:08:20.203Z,101555.18
2023-04-29T06:10:54.049Z,101559.29
2023-04-29T06:13:22.072Z,101558.52
2023-04-29T06:15:50.734Z,101552.02
2023-04-29T06:18:19.513Z,101549.33
2023-04-29T06:20:47.535Z,101546.31
2023-04-29T06:23:15.947Z,101549.42
2023-04-29T06:25:44.028Z,101553.70
2023-04-29T06:28:12.290Z,101551.17
2023-04-29T06:30:40.311Z,101549.91
2023-04-29T06:33:09.453Z,101552.73
2023-04-29T06:35:41.022Z,101554.41
2023-04-29T06:38:19.620Z,101546.70
2023-04-29T06:40:47.740Z,101544.94
2023-04-29T06:43:18.468Z,101545.93
2023-04-29T06:45:57.727Z,101549.72
2023-04-29T06:48:35.482Z,101548.02
2023-04-29T06:51:05.410Z,101548.55
2023-04-29T06:53:37.346Z,101548.75
2023-04-29T06:56:07.001Z,101547.27
2023-04-29T06:58:35.111Z,101544.63
2023-04-29T07:01:04.399Z,101544.67
2023-04-29T07:03:33.050Z,101543.83
2023-04-29T07:06:01.052Z,101541.63
2023-04-29T07:08:29.181Z,101539.91
2023-04-29T07:10:57.792Z,101541.91
2023-04-29T07:13:25.812Z,101543.61
2023-04-29T07:15:53.834Z,101542.77
2023-04-29T07:18:22.066Z,101540.96
2023-04-29T07:20:52.180Z,101545.52
2023-04-29T07:23:20.202Z,101543.23
2023-04-29T07:25:48.220Z,101538.23
2023-04-29T07:28:16.237Z,101531.77
2023-04-29T07:30:44.307Z,101530.77
2023-04-29T07:33:12.478Z,101530.45
2023-04-29T07:35:43.407Z,101532.08
2023-04-29T07:38:11.629Z,101533.50
2023-04-29T07:40:39.645Z,101530.31
2023-04-29T07:43:09.459Z,101531.41
2023-04-29T07:45:37.692Z,101524.09
2023-04-29T07:48:06.796Z,101522.77
2023-04-29T07:50:35.440Z,101515.39
2023-04-29T07:53:03.858Z,101512.11
2023-04-29T07:55:31.980Z,101512.69
2023-04-29T07:58:01.602Z,101518.66
2023-04-29T08:00:29.619Z,101512.05
2023-04-29T08:02:58.029Z,101519.46
2023-04-29T08:05:26.847Z,101507.45
2023-04-29T08:07:55.282Z,101509.20
2023-04-29T08:10:23.604Z,101510.98
2023-04-29T08:12:51.632Z,101506.60
2023-04-29T08:15:20.450Z,101508.86
2023-04-29T08:17:48.490Z,101505.38
2023-04-29T08:20:16.589Z,101509.70
2023-04-29T08:22:44.607Z,101509.42
2023-04-29T08:25:12.644Z,101505.00
2023-04-29T08:27:40.856Z,101508.69
2023-04-29T08:30:09.636Z,101503.80
2023-04-29T08:32:37.613Z,101503.97
2023-04-29T08:35:06.316Z,101512.71
2023-04-29T08:37:34.329Z,101506.57
2023-04-29T08:40:03.769Z,101511.30
2023-04-29T08:42:36.586Z,101509.35
2023-04-29T08:45:05.058Z,101496.58
2023-04-29T08:47:33.765Z,101498.75
2023-04-29T08:50:05.370Z,101498.80
2023-04-29T08:52:33.492Z,101496.77
2023-04-29T08:55:05.874Z,101496.74
2023-04-29T08:57:40.087Z,101491.63
2023-04-29T09:00:10.514Z,101491.86
2023-04-29T09:02:44.775Z,101481.48
2023-04-29T09:05:13.154Z,101486.02
2023-04-29T09:07:41.791Z,101482.55
2023-04-29T09:10:10.196Z,101478.55
2023-04-29T09:12:38.220Z,101474.69
2023-04-29T09:15:06.979Z,101474.07
2023-04-29T09:17:41.160Z,101472.98
2023-04-29T09:20:21.605Z,101475.41
2023-04-29T09:22:53.674Z,101475.91
2023-04-29T09:25:22.209Z,101468.48
2023-04-29T09:27:50.239Z,101465.77
2023-04-29T09:30:19.645Z,101467.44
2023-04-29T09:33:06.984Z,101468.39
2023-04-29T09:35:35.653Z,101453.94
2023-04-29T09:38:13.382Z,101452.76
2023-04-29T09:40:57.352Z,101445.34
2023-04-29T09:43:27.416Z,101445.59
2023-04-29T09:45:55.651Z,101440.39
2023-04-29T09:48:23.745Z,101442.56
2023-04-29T09:51:01.756Z,101436.82
2023-04-29T09:53:31.265Z,101429.94
2023-04-29T09:56:01.326Z,101432.36
2023-04-29T09:58:42.129Z,101435.50
2023-04-29T10:01:10.589Z,101431.81
2023-04-29T10:03:38.947Z,101431.52
2023-04-29T10:06:07.999Z,101429.88
2023-04-29T10:08:36.196Z,101429.24
2023-04-29T10:11:04.462Z,101430.77
2023-04-29T10:13:32.744Z,101429.86
2023-04-29T10:16:10.134Z,101428.56
2023-04-29T10:18:38.500Z,101424.77
2023-04-29T10:21:07.260Z,101420.14
2023-04-29T10:23:36.610Z,101423.93
2023-04-29T10:26:04.583Z,101424.42
2023-04-29T10:28:32.995Z,101416.16
2023-04-29T10:31:02.271Z,101405.48
2023-04-29T10:33:31.588Z,101405.66
2023-04-29T10:36:01.270Z,101405.95
2023-04-29T10:38:35.466Z,101402.02
2023-04-29T10:41:04.641Z,101404.38
2023-04-29T10:43:32.656Z,101401.17
2023-04-29T10:46:18.001Z,101402.44
2023-04-29T10:49:08.548Z,101408.34
2023-04-29T10:51:57.731Z,101400.18
2023-04-29T10:54:26.252Z,101396.02
2023-04-29T10:56:54.650Z,101392.35
2023-04-29T10:59:28.612Z,101392.72
2023-04-29T11:01:56.639Z,101390.86
2023-04-29T11:04:24.677Z,101386.69
2023-04-29T11:06:54.704Z,101389.24
2023-04-29T11:09:30.338Z,101384.52
2023-04-29T11:12:03.645Z,101380.20
2023-04-29T11:14:49.445Z,101379.11
2023-04-29T11:17:19.940Z,101375.48
2023-04-29T11:19:50.352Z,101375.82
2023-04-29T11:22:18.450Z,101370.84
2023-04-29T11:24:57.530Z,101364.02
2023-04-29T11:27:38.932Z,101355.25
2023-04-29T11:30:07.868Z,101357.84
2023-04-29T11:32:40.649Z,101353.86
2023-04-29T11:35:10.341Z,101358.40
2023-04-29T11:37:38.652Z,101360.44
2023-04-29T11:40:07.283Z,101355.24
2023-04-29T11:42:36.897Z,101349.96
2023-04-29T11:45:05.521Z,101341.59
2023-04-29T11:47:33.965Z,101337.30
2023-04-29T11:50:08.914Z,101329.08
2023-04-29T11:52:38.958Z,101329.12
2023-04-29T11:55:09.246Z,101330.08
2023-04-29T11:57:37.658Z,101329.08
2023-04-29T12:00:07.389Z,101329.48
2023-04-29T12:02:38.824Z,101322.74
2023-04-29T12:05:08.714Z,101318.83
2023-04-29T12:07:37.638Z,101317.05
2023-04-29T12:10:12.390Z,101317.02
2023-04-29T12:12:47.568Z,101317.30
2023-04-29T12:15:15.573Z,101308.02
2023-04-29T12:17:43.665Z,101313.27
2023-04-29T12:20:12.416Z,101310.80
2023-04-29T12:22:43.951Z,101306.23
2023-04-29T12:25:12.496Z,101305.30
2023-04-29T12:27:42.451Z,101308.16
2023-04-29T12:30:11.504Z,101308.13
2023-04-29T12:32:39.577Z,101302.52
2023-04-29T12:35:16.560Z,101305.86
2023-04-29T12:37:48.425Z,101297.98
2023-04-29T12:40:16.948Z,101294.65
2023-04-29T12:42:47.769Z,101296.50
2023-04-29T12:45:32.835Z,101295.14
2023-04-29T12:48:01.620Z,101296.91
2023-04-29T12:50:37.926Z,101291.84
2023-04-29T12:53:06.690Z,101292.34
2023-04-29T12:55:37.994Z,101293.02
2023-04-29T12:58:07.462Z,101283.61
2023-04-29T13:00:37.628Z,101282.13
2023-04-29T13:03:06.319Z,101280.81
2023-04-29T13:05:34.698Z,101280.80
2023-04-29T13:08:03.096Z,101283.92
2023-04-29T13:10:31.163Z,101274.58
2023-04-29T13:12:59.640Z,101275.19
2023-04-29T13:15:27.859Z,101274.90
2023-04-29T13:17:56.278Z,101275.84
2023-04-29T13:20:24.386Z,101274.08
2023-04-29T13:22:52.592Z,101275.24
2023-04-29T13:25:20.534Z,101274.69
2023-04-29T13:27:48.669Z,101268.33
2023-04-29T13:30:16.677Z,101269.65
2023-04-29T13:32:51.641Z,101267.57
2023-04-29T13:35:23.450Z,101267.19
2023-04-29T13:37:51.474Z,101265.80
2023-04-29T13:40:21.165Z,101263.66
2023-04-29T13:42:50.825Z,101263.53
2023-04-29T13:45:29.083Z,101264.56
2023-04-29T13:48:09.641Z,101263.02
2023-04-29T13:53:50.055Z,101256.56
2023-04-29T13:59:11.735Z,101264.41
2023-04-29T14:03:58.999Z,101266.19
2023-04-29T14:06:28.514Z,101263.83
2023-04-29T14:08:56.720Z,101263.43
2023-04-29T14:11:24.739Z,101260.10
2023-04-29T14:13:52.659Z,101261.10
2023-04-29T14:16:21.027Z,101257.44
2023-04-29T14:18:49.094Z,101256.77
2023-04-29T14:21:17.113Z,101259.23
2023-04-29T14:23:45.140Z,101257.36
2023-04-29T14:26:27.383Z,101253.67
2023-04-29T14:29:00.034Z,101254.58
2023-04-29T14:31:29.824Z,101251.09
2023-04-29T14:33:58.284Z,101251.02
2023-04-29T14:36:26.907Z,101244.30
2023-04-29T14:38:54.928Z,101244.68
2023-04-29T14:41:22.948Z,101241.64
2023-04-29T14:43:50.969Z,101240.09
2023-04-29T14:46:19.028Z,101241.95
2023-04-29T14:48:47.101Z,101243.05
2023-04-29T14:51:15.328Z,101247.52
2023-04-29T14:53:43.393Z,101247.09
2023-04-29T14:56:11.385Z,101247.69
2023-04-29T14:58:39.488Z,101248.20
2023-04-29T15:01:07.700Z,101247.16
2023-04-29T15:03:43.547Z,101244.23
2023-04-29T15:06:13.145Z,101239.77
2023-04-29T15:08:41.605Z,101242.48
2023-04-29T15:11:09.528Z,101240.10
2023-04-29T15:13:37.832Z,101239.12
2023-04-29T15:16:07.492Z,101234.15
2023-04-29T15:18:35.587Z,101232.41
2023-04-29T15:21:04.614Z,101231.59
2023-04-29T15:23:33.239Z,101231.92
2023-04-29T15:26:01.260Z,101233.46
2023-04-29T15:28:29.281Z,101231.98
2023-04-29T15:31:00.008Z,101233.83
2023-04-29T15:33:28.013Z,101235.02
2023-04-29T15:35:56.839Z,101232.58
2023-04-29T15:38:24.856Z,101232.09
2023-04-29T15:40:58.993Z,101232.08
2023-04-29T15:43:30.129Z,101230.95
2023-04-29T15:45:59.654Z,101232.48
2023-04-29T15:48:27.778Z,101230.47
2023-04-29T15:50:55.792Z,101230.42
2023-04-29T15:53:23.831Z,101229.99
2023-04-29T15:55:52.432Z,101231.05
2023-04-29T15:58:20.351Z,101233.71
2023-04-29T16:00:48.530Z,101233.92
2023-04-29T16:03:16.784Z,101229.25
2023-04-29T16:05:45.119Z,101231.88
2023-04-29T16:08:13.167Z,101234.61
2023-04-29T16:10:41.162Z,101237.23
2023-04-29T16:13:09.379Z,101238.94
2023-04-29T16:15:37.393Z,101236.90
2023-04-29T16:18:05.808Z,101242.17
2023-04-29T16:20:33.938Z,101238.88
2023-04-29T16:23:01.954Z,101245.39
2023-04-29T16:25:29.975Z,101243.30
2023-04-29T16:27:58.000Z,101250.45
2023-04-29T16:30:26.029Z,101252.44
2023-04-29T16:32:54.882Z,101254.20
2023-04-29T16:35:26.589Z,101253.89
2023-04-29T16:37:55.698Z,101249.00
2023-04-29T16:40:24.597Z,101248.82
2023-04-29T16:42:53.609Z,101249.09
2023-04-29T16:45:23.729Z,101253.91
2023-04-29T16:47:52.843Z,101253.15
2023-04-29T16:50:20.923Z,101249.65
2023-04-29T16:52:48.933Z,101254.02
2023-04-29T16:55:17.049Z,101251.84
2023-04-29T16:57:45.070Z,101256.33
2023-04-29T17:00:14.112Z,101248.47
2023-04-29T17:02:43.210Z,101252.62
2023-04-29T17:05:11.663Z,101256.66
2023-04-29T17:07:39.857Z,101253.80
2023-04-29T17:10:08.486Z,101257.85
2023-04-29T17:12:36.703Z,101259.73
2023-04-29T17:15:06.074Z,101258.14
2023-04-29T17:17:35.219Z,101255.81
2023-04-29T17:20:03.982Z,101254.88
2023-04-29T17:22:33.389Z,101256.95
2023-04-29T17:25:01.825Z,101255.55
2023-04-29T17:27:30.029Z,101253.58
2023-04-29T17:29:58.148Z,101259.69
2023-04-29T17:32:29.673Z,101261.23
2023-04-29T17:34:57.910Z,101261.54
2023-04-29T17:37:26.022Z,101261.48
2023-04-29T17:39:54.404Z,101265.02
2023-04-29T17:42:22.761Z,101269.47
2023-04-29T17:44:50.884Z,101267.56
2023-04-29T17:47:19.495Z,101268.73
2023-04-29T17:49:48.931Z,101272.36
2023-04-29T17:52:21.098Z,101274.96
2023-04-29T17:54:49.183Z,101272.52
2023-04-29T17:57:17.209Z,101273.73
2023-04-29T17:59:45.220Z,101279.59
2023-04-29T18:02:13.147Z,101281.30
2023-04-29T18:04:41.569Z,101283.27
2023-04-29T18:07:09.592Z,101286.90
2023-04-29T18:09:37.604Z,101285.69
2023-04-29T18:12:05.926Z,101289.63
2023-04-29T18:14:33.945Z,101290.98
2023-04-29T18:17:02.075Z,101292.63
2023-04-29T18:19:30.384Z,101292.65
2023-04-29T18:21:59.414Z,101295.69
2023-04-29T18:24:29.298Z,101293.61
2023-04-29T18:26:57.764Z,101294.52
2023-04-29T18:29:25.773Z,101294.34
2023-04-29T18:31:55.056Z,101291.81
2023-04-29T18:34:23.214Z,101293.80
2023-04-29T18:36:51.537Z,101297.63
2023-04-29T18:39:19.453Z,101298.20
2023-04-29T18:41:47.379Z,101295.91
2023-04-29T18:44:15.495Z,101297.63
2023-04-29T18:46:43.743Z,101295.60
2023-04-29T18:49:16.274Z,101298.52
2023-04-29T18:51:46.660Z,101294.48
2023-04-29T18:54:16.075Z,101290.95
2023-04-29T18:56:47.950Z,101293.14
2023-04-29T18:59:19.456Z,101291.30
2023-04-29T19:01:48.190Z,101290.35
2023-04-29T19:04:16.640Z,101286.39
2023-04-29T19:06:45.072Z,101292.64
2023-04-29T19:09:13.833Z,101288.65
2023-04-29T19:11:41.986Z,101286.02
2023-04-29T19:14:09.996Z,101287.96
2023-04-29T19:16:38.045Z,101285.98
2023-04-29T19:19:06.860Z,101287.02
2023-04-29T19:21:34.952Z,101282.65
2023-04-29T19:24:02.971Z,101285.36
2023-04-29T19:26:33.008Z,101282.14
2023-04-29T19:29:03.024Z,101278.33
2023-04-29T19:31:31.241Z,101278.55
2023-04-29T19:33:59.327Z,101274.09
2023-04-29T19:36:27.290Z,101272.08
2023-04-29T19:38:55.357Z,101268.80
2023-04-29T19:41:23.429Z,101271.91
2023-04-29T19:43:51.554Z,101273.49
2023-04-29T19:46:19.583Z,101267.34
2023-04-29T19:48:47.684Z,101267.55
2023-04-29T19:51:16.310Z,101261.77
2023-04-29T19:53:44.335Z,101259.28
2023-04-29T19:56:12.357Z,101258.20
2023-04-29T19:58:40.669Z,101257.83
2023-04-29T20:01:08.630Z,101256.48
2023-04-29T20:03:39.377Z,101256.93
2023-04-29T20:06:07.881Z,101251.80
2023-04-29T20:08:37.319Z,101247.77
2023-04-29T20:11:05.584Z,101247.77
2023-04-29T20:13:33.601Z,101249.39
2023-04-29T20:16:01.669Z,101246.08
2023-04-29T20:18:29.752Z,101243.30
2023-04-29T20:20:57.764Z,101243.91
2023-04-29T20:23:25.878Z,101241.49
2023-04-29T20:25:53.900Z,101239.61
2023-04-29T20:28:21.922Z,101239.54
2023-04-29T20:30:49.842Z,101238.15
2023-04-29T20:33:17.879Z,101235.06
2023-04-29T20:35:45.975Z,101238.96
2023-04-29T20:38:13.928Z,101235.39
2023-04-29T20:40:42.319Z,101233.77
2023-04-29T20:43:10.836Z,101231.63
2023-04-29T20:45:39.079Z,101229.00
2023-04-29T20:48:07.314Z,101228.19
2023-04-29T20:50:35.798Z,101225.83
2023-04-29T20:53:03.922Z,101227.73
2023-04-29T20:55:31.941Z,101224.13
2023-04-29T20:57:59.969Z,101226.94
2023-04-29T21:00:27.982Z,101227.11
2023-04-29T21:02:55.932Z,101223.80
2023-04-29T21:05:24.021Z,101222.38
2023-04-29T21:07:52.040Z,101219.44
2023-04-29T21:10:21.066Z,101219.98
2023-04-29T21:12:49.087Z,101214.88
2023-04-29T21:15:17.609Z,101217.20
2023-04-29T21:17:46.135Z,101212.92
2023-04-29T21:20:14.150Z,101209.59
2023-04-29T21:22:42.164Z,101212.79
2023-04-29T21:25:10.200Z,101213.02
2023-04-29T21:27:38.306Z,101209.20
2023-04-29T21:30:06.825Z,101209.48
2023-04-29T21:32:36.179Z,101210.06
2023-04-29T21:35:04.666Z,101212.84
2023-04-29T21:37:34.055Z,101209.39
2023-04-29T21:40:04.460Z,101206.06
2023-04-29T21:42:32.545Z,101205.17
2023-04-29T21:45:01.165Z,101204.73
2023-04-29T21:47:32.341Z,101201.23
2023-04-29T21:50:00.935Z,101204.54
2023-04-29T21:52:31.040Z,101206.92
2023-04-29T21:54:59.066Z,101204.23
2023-04-29T21:57:42.717Z,101201.34
2023-04-29T22:00:28.797Z,101204.92
2023-04-29T22:02:57.196Z,101204.83
2023-04-29T22:05:25.458Z,101203.44
2023-04-29T22:07:53.474Z,101198.23
2023-04-29T22:10:21.493Z,101191.55
2023-04-29T22:12:49.527Z,101191.29
2023-04-29T22:15:28.112Z,101186.27
2023-04-29T22:17:57.984Z,101180.39
2023-04-29T22:20:26.021Z,101179.95
2023-04-29T22:22:54.297Z,101175.90
2023-04-29T22:25:22.558Z,101175.98
2023-04-29T22:27:50.682Z,101177.44
2023-04-29T22:30:19.836Z,101176.46
2023-04-29T22:32:47.871Z,101176.54
2023-04-29T22:35:16.343Z,101175.11
2023-04-29T22:37:44.263Z,101175.73
2023-04-29T22:40:13.116Z,101171.31
2023-04-29T22:42:43.061Z,101168.06
2023-04-29T22:45:12.481Z,101160.49
2023-04-29T22:47:40.702Z,101157.24
2023-04-29T22:50:10.246Z,101150.92
2023-04-29T22:52:38.247Z,101145.97
2023-04-29T22:55:07.222Z,101144.31
2023-04-29T22:57:35.141Z,101138.65
2023-04-29T23:00:03.760Z,101134.95
2023-04-29T23:02:31.751Z,101134.41
2023-04-29T23:04:59.835Z,101133.30
2023-04-29T23:07:28.025Z,101130.55
2023-04-29T23:09:56.226Z,101132.06
2023-04-29T23:12:24.966Z,101132.56
2023-04-29T23:14:52.984Z,101130.31
2023-04-29T23:17:21.004Z,101132.45
2023-04-29T23:19:49.028Z,101131.23
2023-04-29T23:22:17.964Z,101131.59
2023-04-29T23:24:45.992Z,101127.44
2023-04-29T23:27:13.983Z,101121.54
2023-04-29T23:29:42.041Z,101124.02
2023-04-29T23:32:10.127Z,101118.23
2023-04-29T23:34:38.192Z,101117.25
2023-04-29T23:37:06.265Z,101118.07
2023-04-29T23:39:34.384Z,101115.95
2023-04-29T23:42:03.915Z,101117.48
2023-04-29T23:44:31.833Z,101117.02
2023-04-29T23:46:59.948Z,101115.35
2023-04-29T23:49:28.767Z,101118.16
2023-04-29T23:51:56.703Z,101114.41
2023-04-29T23:54:24.710Z,101113.19
2023-04-29T23:56:52.734Z,101111.94
2023-04-29T23:59:20.751Z,101113.09
